createdAt,value
2024-01-04T00:00:15.085Z,14.68
2024-01-04T00:02:46.754Z,17.17
2024-01-04T00:05:14.358Z,15.02
2024-01-04T00:07:41.801Z,13.57
2024-01-04T00:10:09.821Z,16.05
2024-01-04T00:12:37.677Z,15.93
2024-01-04T00:15:06.114Z,13.27
2024-01-04T00:17:34.141Z,18.80
2024-01-04T00:20:02.397Z,13.40
2024-01-04T00:22:32.616Z,14.65
2024-01-04T00:25:00.287Z,14.80
2024-01-04T00:27:27.766Z,15.18
2024-01-04T00:29:55.583Z,15.90
2024-01-04T00:32:23.405Z,13.63
2024-01-04T00:34:51.036Z,15.63
2024-01-04T00:37:21.232Z,16.20
2024-01-04T00:39:50.003Z,16.30
2024-01-04T00:42:17.505Z,11.95
2024-01-04T00:44:45.580Z,13.43
2024-01-04T00:47:13.305Z,12.93
2024-01-04T00:49:41.604Z,11.55
2024-01-04T00:52:09.301Z,14.68
2024-01-04T00:54:36.780Z,15.93
2024-01-04T00:57:04.878Z,13.15
2024-01-04T00:59:32.439Z,13.02
2024-01-04T01:01:59.931Z,12.73
2024-01-04T01:04:27.632Z,13.80
2024-01-04T01:06:55.451Z,13.15
2024-01-04T01:09:23.860Z,18.92
2024-01-04T01:11:52.271Z,16.70
2024-01-04T01:14:19.749Z,16.75
2024-01-04T01:16:49.689Z,18.15
2024-01-04T01:19:17.725Z,32.40
2024-01-04T01:21:45.589Z,26.67
2024-01-04T01:24:13.302Z,17.73
2024-01-04T01:26:41.767Z,18.13
2024-01-04T01:29:09.452Z,16.27
2024-01-04T01:31:55.142Z,17.15
2024-01-04T01:34:22.763Z,14.45
2024-01-04T01:36:50.603Z,16.40
2024-01-04T01:39:18.143Z,14.43
2024-01-04T01:41:45.994Z,13.88
2024-01-04T01:44:13.738Z,18.08
2024-01-04T01:46:42.117Z,13.95
2024-01-04T01:49:09.881Z,14.35
2024-01-04T01:51:38.736Z,15.63
2024-01-04T01:54:06.928Z,14.52
2024-01-04T01:56:35.044Z,15.70
2024-01-04T01:59:07.320Z,16.90
2024-01-04T02:01:39.070Z,16.58
2024-01-04T02:04:06.646Z,14.55
2024-01-04T02:06:34.217Z,13.50
2024-01-04T02:09:02.044Z,13.50
2024-01-04T02:11:29.650Z,12.82
2024-01-04T02:13:57.165Z,12.57
2024-01-04T02:16:24.961Z,14.65
2024-01-04T02:18:52.720Z,14.70
2024-01-04T02:21:21.178Z,12.27
2024-01-04T02:23:48.728Z,14.18
2024-01-04T02:26:16.409Z,12.90
2024-01-04T02:28:45.402Z,13.25
2024-01-04T02:31:13.083Z,15.50
2024-01-04T02:33:40.800Z,13.27
2024-01-04T02:36:08.815Z,18.80
2024-01-04T02:38:36.318Z,17.77
2024-01-04T02:41:04.237Z,17.63
2024-01-04T02:43:32.588Z,14.98
2024-01-04T02:46:00.127Z,16.77
2024-01-04T02:48:27.968Z,13.38
2024-01-04T02:50:55.799Z,13.23
2024-01-04T02:53:24.249Z,13.93
2024-01-04T02:55:51.750Z,15.43
2024-01-04T02:58:19.948Z,10.80
2024-01-04T03:00:47.500Z,12.65
2024-01-04T03:03:15.085Z,12.15
2024-01-04T03:05:42.947Z,13.68
2024-01-04T03:08:10.700Z,12.70
2024-01-04T03:10:38.473Z,12.35
2024-01-04T03:13:08.264Z,10.73
2024-01-04T03:15:35.861Z,12.10
2024-01-04T03:18:03.789Z,14.27
2024-01-04T03:20:31.502Z,16.25
2024-01-04T03:22:58.927Z,13.38
2024-01-04T03:25:26.455Z,13.95
2024-01-04T03:27:54.789Z,13.40
2024-01-04T03:30:22.343Z,16.15
2024-01-04T03:32:50.470Z,14.05
2024-01-04T03:35:18.321Z,10.45
2024-01-04T03:37:45.885Z,14.77
2024-01-04T03:40:14.746Z,15.38
2024-01-04T03:42:42.235Z,13.65
2024-01-04T03:45:09.818Z,13.93
2024-01-04T03:47:37.498Z,12.68
2024-01-04T03:50:06.843Z,12.70
2024-01-04T03:52:34.593Z,13.75
2024-01-04T03:55:02.148Z,15.50
2024-01-04T03:57:30.933Z,18.20
2024-01-04T03:59:58.703Z,15.38
2024-01-04T04:02:26.144Z,15.45
2024-01-04T04:04:53.663Z,15.80
2024-01-04T04:07:21.354Z,16.00
2024-01-04T04:09:49.058Z,14.27
2024-01-04T04:12:16.728Z,14.60
2024-01-04T04:14:44.303Z,12.18
2024-01-04T04:17:12.073Z,12.32
2024-01-04T04:19:39.641Z,13.55
2024-01-04T04:22:07.215Z,12.77
2024-01-04T04:24:35.041Z,15.85
2024-01-04T04:27:02.676Z,12.15
2024-01-04T04:29:30.548Z,14.35
2024-01-04T04:31:58.101Z,12.02
2024-01-04T04:34:25.940Z,14.00
2024-01-04T04:36:53.631Z,10.75
2024-01-04T04:39:21.323Z,11.80
2024-01-04T04:41:48.756Z,11.70
2024-01-04T04:44:16.183Z,10.25
2024-01-04T04:46:44.013Z,12.80
2024-01-04T04:49:11.796Z,17.70
2024-01-04T04:51:39.460Z,16.88
2024-01-04T04:54:07.039Z,14.05
2024-01-04T04:56:34.757Z,15.00
2024-01-04T04:59:03.479Z,15.55
2024-01-04T05:01:31.368Z,15.88
2024-01-04T05:03:58.963Z,14.23
2024-01-04T05:06:26.668Z,15.80
2024-01-04T05:08:54.355Z,15.48
2024-01-04T05:11:21.901Z,13.85
2024-01-04T05:13:49.350Z,11.73
2024-01-04T05:16:17.235Z,13.32
2024-01-04T05:18:45.125Z,13.65
2024-01-04T05:21:12.830Z,14.70
2024-01-04T05:23:40.618Z,13.50
2024-01-04T05:26:08.284Z,12.65
2024-01-04T05:28:36.192Z,16.65
2024-01-04T05:31:04.027Z,11.23
2024-01-04T05:33:31.577Z,14.65
2024-01-04T05:35:59.273Z,12.15
2024-01-04T05:38:26.808Z,11.05
2024-01-04T05:40:54.427Z,11.02
2024-01-04T05:43:21.827Z,10.55
2024-01-04T05:45:49.332Z,18.70
2024-01-04T05:48:17.501Z,14.88
2024-01-04T05:50:45.206Z,12.02
2024-01-04T05:53:12.781Z,12.18
2024-01-04T05:55:40.581Z,13.45
2024-01-04T05:58:08.199Z,14.40
2024-01-04T06:00:35.844Z,11.48
2024-01-04T06:03:05.385Z,13.43
2024-01-04T06:05:32.951Z,14.60
2024-01-04T06:08:00.694Z,12.63
2024-01-04T06:10:28.473Z,12.25
2024-01-04T06:12:56.066Z,15.60
2024-01-04T06:15:23.928Z,10.38
2024-01-04T06:17:51.683Z,17.50
2024-01-04T06:20:19.182Z,17.20
2024-01-04T06:22:47.755Z,17.83
2024-01-04T06:25:15.401Z,15.48
2024-01-04T06:27:43.103Z,13.38
2024-01-04T06:30:11.247Z,16.55
2024-01-04T06:32:39.035Z,16.47
2024-01-04T06:35:06.887Z,15.95
2024-01-04T06:37:34.411Z,17.90
2024-01-04T06:40:02.084Z,15.95
2024-01-04T06:42:30.883Z,16.73
2024-01-04T06:44:58.744Z,16.15
2024-01-04T06:47:26.554Z,13.63
2024-01-04T06:50:00.880Z,14.65
2024-01-04T06:52:35.051Z,12.90
2024-01-04T06:55:02.604Z,16.70
2024-01-04T06:57:31.158Z,17.33
2024-01-04T06:59:58.649Z,18.00
2024-01-04T07:02:26.752Z,19.63
2024-01-04T07:04:54.443Z,17.35
2024-01-04T07:07:22.051Z,20.55
2024-01-04T07:09:51.518Z,26.60
2024-01-04T07:12:19.649Z,30.52
2024-01-04T07:14:47.112Z,38.83
2024-01-04T07:17:16.294Z,110.28
2024-01-04T07:22:16.885Z,123.05
2024-01-04T07:24:44.782Z,87.40
2024-01-04T07:27:13.134Z,39.63
2024-01-04T07:29:40.948Z,21.75
2024-01-04T07:32:08.420Z,16.23
2024-01-04T07:34:43.397Z,14.88
2024-01-04T07:37:14.304Z,17.90
2024-01-04T07:39:42.631Z,20.90
2024-01-04T07:42:11.806Z,19.93
2024-01-04T07:44:45.204Z,18.98
2024-01-04T07:47:18.404Z,24.50
2024-01-04T07:49:46.065Z,21.80
2024-01-04T07:52:13.733Z,21.42
2024-01-04T07:54:48.185Z,19.27
2024-01-04T07:57:18.833Z,23.48
2024-01-04T07:59:46.504Z,22.55
2024-01-04T08:02:14.043Z,22.20
2024-01-04T08:04:41.558Z,20.48
2024-01-04T08:07:09.358Z,15.57
2024-01-04T08:09:39.601Z,18.50
2024-01-04T08:12:07.980Z,14.68
2024-01-04T08:14:35.444Z,17.52
2024-01-04T08:17:02.869Z,18.50
2024-01-04T08:19:31.729Z,19.85
2024-01-04T08:21:59.459Z,12.90
2024-01-04T08:24:27.303Z,20.77
2024-01-04T08:26:54.832Z,18.65
2024-01-04T08:29:22.614Z,25.25
2024-01-04T08:31:51.262Z,28.90
2024-01-04T08:34:19.226Z,30.20
2024-01-04T08:36:47.708Z,31.42
2024-01-04T08:39:15.388Z,29.70
2024-01-04T08:41:43.024Z,24.30
2024-01-04T08:44:11.231Z,23.48
2024-01-04T08:46:40.180Z,28.02
2024-01-04T08:49:09.528Z,29.73
2024-01-04T08:51:37.562Z,19.23
2024-01-04T08:54:06.239Z,18.52
2024-01-04T08:56:34.991Z,25.48
2024-01-04T08:59:03.910Z,22.40
2024-01-04T09:01:31.515Z,21.55
2024-01-04T09:03:59.260Z,16.95
2024-01-04T09:06:27.067Z,16.08
2024-01-04T09:08:55.162Z,18.88
2024-01-04T09:11:23.098Z,14.65
2024-01-04T09:13:50.808Z,19.95
2024-01-04T09:16:18.381Z,17.77
2024-01-04T09:18:46.175Z,20.73
2024-01-04T09:21:14.475Z,15.63
2024-01-04T09:23:42.375Z,21.98
2024-01-04T09:26:10.730Z,15.77
2024-01-04T09:28:38.589Z,13.43
2024-01-04T09:31:06.440Z,19.13
2024-01-04T09:33:36.217Z,17.67
2024-01-04T09:36:04.435Z,14.05
2024-01-04T09:38:34.984Z,14.90
2024-01-04T09:41:23.040Z,14.20
2024-01-04T09:43:56.481Z,11.52
2024-01-04T09:46:26.698Z,13.10
2024-01-04T09:49:04.425Z,11.32
2024-01-04T09:51:35.485Z,8.63
2024-01-04T09:54:05.666Z,15.05
2024-01-04T09:56:33.931Z,14.27
2024-01-04T09:59:01.567Z,13.45
2024-01-04T10:01:34.865Z,14.80
2024-01-04T10:04:07.920Z,15.73
2024-01-04T10:06:41.319Z,16.55
2024-01-04T10:09:17.183Z,15.27
2024-01-04T10:11:49.195Z,11.60
2024-01-04T10:14:17.059Z,16.25
2024-01-04T10:16:46.325Z,15.18
2024-01-04T10:19:14.133Z,15.38
2024-01-04T10:21:42.922Z,15.45
2024-01-04T10:24:16.432Z,19.23
2024-01-04T10:26:45.465Z,17.35
2024-01-04T10:29:20.931Z,14.77
2024-01-04T10:31:58.844Z,12.85
2024-01-04T10:34:27.486Z,13.02
2024-01-04T10:36:58.872Z,14.63
2024-01-04T10:39:26.499Z,14.45
2024-01-04T10:42:03.826Z,23.25
2024-01-04T10:44:33.455Z,13.90
2024-01-04T10:49:31.789Z,13.60
2024-01-04T10:52:00.714Z,11.32
2024-01-04T10:54:36.090Z,11.40
2024-01-04T10:57:04.309Z,12.32
2024-01-04T10:59:33.779Z,13.88
2024-01-04T11:04:31.873Z,9.60
2024-01-04T11:07:01.538Z,10.73
2024-01-04T11:09:30.033Z,8.88
2024-01-04T11:12:00.519Z,13.27
2024-01-04T11:14:31.320Z,11.05
2024-01-04T11:17:26.158Z,28.02
2024-01-04T11:20:12.187Z,13.27
2024-01-04T11:22:51.660Z,9.25
2024-01-04T11:25:42.795Z,10.75
2024-01-04T11:28:12.010Z,9.25
2024-01-04T11:30:40.020Z,14.48
2024-01-04T11:33:08.877Z,11.05
2024-01-04T11:35:40.466Z,11.10
2024-01-04T11:38:08.967Z,13.55
2024-01-04T11:40:39.454Z,21.73
2024-01-04T11:43:18.636Z,30.15
2024-01-04T11:45:47.278Z,19.00
2024-01-04T11:48:15.224Z,20.02
2024-01-04T11:50:51.374Z,26.98
2024-01-04T11:53:19.944Z,21.88
2024-01-04T11:55:47.587Z,19.83
2024-01-04T11:58:26.110Z,17.35
2024-01-04T12:00:54.684Z,17.57
2024-01-04T12:03:22.938Z,24.53
2024-01-04T12:05:55.951Z,24.05
2024-01-04T12:08:33.605Z,20.55
2024-01-04T12:11:05.944Z,21.77
2024-01-04T12:13:33.636Z,18.73
2024-01-04T12:16:05.372Z,17.45
2024-01-04T12:18:33.999Z,18.65
2024-01-04T12:21:12.064Z,21.73
2024-01-04T12:23:46.533Z,17.95
2024-01-04T12:26:15.308Z,21.13
2024-01-04T12:28:43.243Z,50.85
2024-01-04T12:31:12.079Z,32.65
2024-01-04T12:33:44.464Z,20.20
2024-01-04T12:36:12.825Z,17.35
2024-01-04T12:38:40.581Z,12.43
2024-01-04T12:41:08.346Z,12.65
2024-01-04T12:43:35.885Z,15.00
2024-01-04T12:46:10.208Z,18.80
2024-01-04T12:48:38.294Z,26.35
2024-01-04T12:51:10.381Z,26.02
2024-01-04T12:53:38.261Z,24.88
2024-01-04T12:56:06.230Z,25.67
2024-01-04T12:58:34.993Z,17.95
2024-01-04T13:01:03.470Z,21.73
2024-01-04T13:03:31.918Z,14.35
2024-01-04T13:06:00.017Z,16.17
2024-01-04T13:08:29.102Z,18.90
2024-01-04T13:10:57.381Z,16.52
2024-01-04T13:13:30.252Z,11.87
2024-01-04T13:15:59.992Z,17.73
2024-01-04T13:18:27.742Z,12.75
2024-01-04T13:20:55.754Z,13.70
2024-01-04T13:23:23.410Z,13.07
2024-01-04T13:25:53.444Z,17.88
2024-01-04T13:28:20.991Z,17.58
2024-01-04T13:30:48.781Z,18.90
2024-01-04T13:33:16.669Z,15.88
2024-01-04T13:35:44.770Z,18.15
2024-01-04T13:38:12.455Z,27.80
2024-01-04T13:40:39.929Z,16.10
2024-01-04T13:43:07.729Z,16.27
2024-01-04T13:45:35.457Z,18.45
2024-01-04T13:48:03.371Z,18.23
2024-01-04T13:50:31.993Z,16.58
2024-01-04T13:52:59.526Z,21.67
2024-01-04T13:55:27.109Z,13.93
2024-01-04T13:57:57.591Z,13.48
2024-01-04T14:00:26.755Z,13.75
2024-01-04T14:02:54.623Z,14.82
2024-01-04T14:05:22.173Z,12.52
2024-01-04T14:07:49.995Z,15.52
2024-01-04T14:10:21.006Z,20.48
2024-01-04T14:12:52.551Z,14.70
2024-01-04T14:15:23.701Z,15.93
2024-01-04T14:17:52.693Z,23.27
2024-01-04T14:20:22.386Z,23.85
2024-01-04T14:25:20.692Z,16.90
2024-01-04T14:27:50.308Z,18.67
2024-01-04T14:30:17.957Z,19.48
2024-01-04T14:32:45.567Z,16.75
2024-01-04T14:35:14.124Z,13.20
2024-01-04T14:37:41.816Z,15.13
2024-01-04T14:40:18.380Z,11.80
2024-01-04T14:42:47.303Z,14.90
2024-01-04T14:45:18.541Z,15.23
2024-01-04T14:47:47.769Z,13.57
2024-01-04T14:50:16.893Z,15.32
2024-01-04T14:55:14.032Z,9.77
2024-01-04T14:57:45.552Z,9.20
2024-01-04T15:00:15.092Z,14.40
2024-01-04T15:02:43.293Z,26.27
2024-01-04T15:05:11.376Z,12.90
2024-01-04T15:07:39.585Z,11.93
2024-01-04T15:10:07.708Z,11.95
2024-01-04T15:12:35.345Z,10.32
2024-01-04T15:15:05.150Z,14.80
2024-01-04T15:17:32.873Z,11.30
2024-01-04T15:20:00.494Z,12.43
2024-01-04T15:22:28.292Z,11.40
2024-01-04T15:24:56.442Z,10.27
2024-01-04T15:27:24.114Z,10.35
2024-01-04T15:29:52.753Z,11.63
2024-01-04T15:32:22.357Z,11.93
2024-01-04T15:34:49.891Z,10.27
2024-01-04T15:37:17.631Z,11.90
2024-01-04T15:39:46.727Z,12.32
2024-01-04T15:42:14.703Z,16.08
2024-01-04T15:44:42.332Z,14.02
2024-01-04T15:47:10.617Z,13.25
2024-01-04T15:49:38.423Z,14.52
2024-01-04T15:52:06.405Z,13.35
2024-01-04T15:54:34.586Z,13.75
2024-01-04T15:57:02.808Z,20.98
2024-01-04T15:59:30.648Z,15.70
2024-01-04T16:02:00.382Z,13.52
2024-01-04T16:04:28.777Z,14.30
2024-01-04T16:06:56.994Z,14.63
2024-01-04T16:09:27.488Z,12.95
2024-01-04T16:11:54.990Z,12.35
2024-01-04T16:14:22.625Z,12.57
2024-01-04T16:16:50.982Z,16.13
2024-01-04T16:19:18.895Z,10.25
2024-01-04T16:21:46.425Z,14.10
2024-01-04T16:24:14.094Z,14.30
2024-01-04T16:26:41.638Z,12.18
2024-01-04T16:29:09.031Z,12.35
2024-01-04T16:31:38.031Z,13.20
2024-01-04T16:34:05.683Z,16.85
2024-01-04T16:36:33.467Z,13.00
2024-01-04T16:39:01.078Z,12.45
2024-01-04T16:41:29.027Z,10.63
2024-01-04T16:43:57.097Z,9.65
2024-01-04T16:46:25.407Z,11.85
2024-01-04T16:48:53.786Z,10.45
2024-01-04T16:51:21.372Z,9.95
2024-01-04T16:53:49.283Z,11.23
2024-01-04T16:56:16.958Z,11.45
2024-01-04T16:58:46.102Z,9.90
2024-01-04T17:01:29.295Z,9.57
2024-01-04T17:04:17.622Z,9.90
2024-01-04T17:06:45.536Z,8.65
2024-01-04T17:09:14.653Z,12.13
2024-01-04T17:11:42.800Z,10.68
2024-01-04T17:14:10.505Z,9.65
2024-01-04T17:16:38.285Z,8.65
2024-01-04T17:19:09.470Z,8.23
2024-01-04T17:21:38.193Z,8.90
2024-01-04T17:24:06.944Z,8.90
2024-01-04T17:26:34.522Z,7.90
2024-01-04T17:29:03.278Z,9.02
2024-01-04T17:31:33.197Z,8.23
2024-01-04T17:34:01.056Z,10.40
2024-01-04T17:36:42.245Z,7.80
2024-01-04T17:39:12.097Z,9.80
2024-01-04T17:41:47.406Z,6.05
2024-01-04T17:44:19.289Z,5.88
2024-01-04T17:46:47.828Z,7.53
2024-01-04T17:49:15.823Z,7.05
2024-01-04T17:51:43.716Z,10.90
2024-01-04T17:54:12.918Z,10.50
2024-01-04T17:56:41.013Z,12.00
2024-01-04T17:59:08.488Z,8.27
2024-01-04T18:01:40.992Z,10.18
2024-01-04T18:04:09.847Z,9.73
2024-01-04T18:06:37.500Z,8.25
2024-01-04T18:09:05.385Z,7.47
2024-01-04T18:11:35.024Z,8.35
2024-01-04T18:14:05.509Z,6.65
2024-01-04T18:16:33.327Z,10.87
2024-01-04T18:19:01.536Z,9.45
2024-01-04T18:21:29.654Z,7.57
2024-01-04T18:24:00.213Z,8.73
2024-01-04T18:26:32.925Z,8.27
2024-01-04T18:29:01.565Z,11.40
2024-01-04T18:31:29.736Z,8.35
2024-01-04T18:33:57.939Z,9.13
2024-01-04T18:36:26.147Z,7.72
2024-01-04T18:39:01.066Z,8.88
2024-01-04T18:41:44.344Z,11.25
2024-01-04T18:44:15.479Z,7.32
2024-01-04T18:46:43.340Z,8.48
2024-01-04T18:49:11.592Z,7.88
2024-01-04T18:51:39.388Z,6.70
2024-01-04T18:54:06.927Z,7.47
2024-01-04T18:56:35.071Z,6.82
2024-01-04T18:59:02.664Z,7.10
2024-01-04T19:01:30.200Z,8.73
2024-01-04T19:03:58.449Z,13.75
2024-01-04T19:06:26.293Z,15.75
2024-01-04T19:08:54.196Z,7.45
2024-01-04T19:11:22.058Z,7.72
2024-01-04T19:13:50.058Z,6.75
2024-01-04T19:16:18.090Z,7.22
2024-01-04T19:18:51.769Z,8.50
2024-01-04T19:21:20.448Z,7.60
2024-01-04T19:23:48.432Z,7.38
2024-01-04T19:26:16.633Z,5.97
2024-01-04T19:28:47.878Z,10.38
2024-01-04T19:31:22.049Z,6.93
2024-01-04T19:34:02.463Z,6.30
2024-01-04T19:36:30.987Z,6.60
2024-01-04T19:38:58.999Z,7.68
2024-01-04T19:41:26.895Z,8.60
2024-01-04T19:43:54.569Z,6.97
2024-01-04T19:46:22.482Z,6.30
2024-01-04T19:48:52.785Z,9.23
2024-01-04T19:51:23.038Z,7.85
2024-01-04T19:53:51.051Z,7.78
2024-01-04T19:56:18.683Z,6.18
2024-01-04T19:58:47.485Z,7.45
2024-01-04T20:01:15.866Z,8.57
2024-01-04T20:03:44.774Z,7.15
2024-01-04T20:06:12.867Z,8.07
2024-01-04T20:08:40.967Z,6.00
2024-01-04T20:11:10.683Z,7.13
2024-01-04T20:13:48.199Z,6.50
2024-01-04T20:16:16.124Z,6.25
2024-01-04T20:18:48.702Z,6.90
2024-01-04T20:21:41.434Z,7.97
2024-01-04T20:24:09.247Z,9.38
2024-01-04T20:26:37.801Z,11.45
2024-01-04T20:29:05.662Z,12.05
2024-01-04T20:31:33.674Z,14.15
2024-01-04T20:34:02.169Z,12.23
2024-01-04T20:36:30.164Z,14.20
2024-01-04T20:38:58.255Z,13.07
2024-01-04T20:41:25.866Z,14.48
2024-01-04T20:43:58.235Z,11.95
2024-01-04T20:46:29.651Z,11.20
2024-01-04T20:48:57.602Z,8.90
2024-01-04T20:51:25.303Z,12.02
2024-01-04T20:54:02.332Z,7.95
2024-01-04T20:56:31.298Z,9.98
2024-01-04T20:58:59.085Z,8.55
2024-01-04T21:01:27.342Z,11.82
2024-01-04T21:03:58.084Z,9.23
2024-01-04T21:06:26.250Z,9.30
2024-01-04T21:08:54.363Z,10.07
2024-01-04T21:11:24.781Z,9.75
2024-01-04T21:14:12.908Z,10.82
2024-01-04T21:16:42.612Z,8.18
2024-01-04T21:19:10.182Z,9.75
2024-01-04T21:21:37.676Z,10.00
2024-01-04T21:24:05.787Z,8.95
2024-01-04T21:26:33.298Z,8.43
2024-01-04T21:29:01.083Z,10.57
2024-01-04T21:31:28.618Z,9.63
2024-01-04T21:33:56.474Z,6.75
2024-01-04T21:36:27.074Z,10.65
2024-01-04T21:38:57.815Z,9.43
2024-01-04T21:41:25.661Z,10.50
2024-01-04T21:43:53.217Z,9.80
2024-01-04T21:46:26.414Z,12.40
2024-01-04T21:48:55.783Z,11.98
2024-01-04T21:51:23.972Z,9.82
2024-01-04T21:53:52.495Z,14.82
2024-01-04T21:56:27.532Z,11.18
2024-01-04T21:59:05.931Z,11.32
2024-01-04T22:01:53.265Z,10.55
2024-01-04T22:04:21.499Z,10.30
2024-01-04T22:06:50.113Z,11.98
2024-01-04T22:09:20.552Z,9.02
2024-01-04T22:11:49.473Z,10.70
2024-01-04T22:14:18.290Z,10.03
2024-01-04T22:16:46.747Z,9.98
2024-01-04T22:19:15.085Z,7.37
2024-01-04T22:21:43.382Z,9.40
2024-01-04T22:24:11.693Z,5.95
2024-01-04T22:26:41.045Z,11.52
2024-01-04T22:29:12.971Z,8.32
2024-01-04T22:31:41.852Z,7.63
2024-01-04T22:34:13.056Z,8.07
2024-01-04T22:36:41.662Z,7.30
2024-01-04T22:39:09.872Z,8.32
2024-01-04T22:41:38.118Z,6.63
2024-01-04T22:44:06.358Z,7.13
2024-01-04T22:46:34.335Z,8.77
2024-01-04T22:49:02.885Z,5.13
2024-01-04T22:51:31.446Z,8.55
2024-01-04T22:54:00.674Z,5.70
2024-01-04T22:56:29.290Z,6.68
2024-01-04T22:58:57.357Z,7.45
2024-01-04T23:01:24.946Z,7.18
2024-01-04T23:03:54.117Z,6.57
2024-01-04T23:06:21.634Z,7.57
2024-01-04T23:08:49.648Z,7.82
2024-01-04T23:11:17.149Z,5.82
2024-01-04T23:13:44.880Z,5.25
2024-01-04T23:16:13.898Z,7.72
2024-01-04T23:18:42.219Z,7.13
2024-01-04T23:21:10.386Z,4.97
2024-01-04T23:23:38.005Z,6.20
2024-01-04T23:26:06.075Z,5.68
2024-01-04T23:28:33.659Z,5.68
2024-01-04T23:31:01.679Z,6.10
2024-01-04T23:33:36.885Z,6.75
2024-01-04T23:36:10.524Z,5.38
2024-01-04T23:38:38.395Z,6.78
2024-01-04T23:41:06.692Z,6.05
2024-01-04T23:43:34.315Z,5.95
2024-01-04T23:46:02.358Z,5.05
2024-01-04T23:48:30.045Z,7.28
2024-01-04T23:50:57.934Z,6.32
2024-01-04T23:53:25.558Z,6.47
2024-01-04T23:55:52.956Z,6.30
2024-01-04T23:58:20.370Z,6.10
